createdAt,value
2023-03-30T00:01:17.268Z,90.84
2023-03-30T00:03:22.873Z,89.61
2023-03-30T00:05:26.099Z,88.24
2023-03-30T00:07:29.447Z,89.02
2023-03-30T00:09:33.222Z,88.44
2023-03-30T00:11:37.865Z,89.17
2023-03-30T00:13:43.067Z,90.17
2023-03-30T00:15:46.042Z,89.92
2023-03-30T00:17:49.206Z,91.60
2023-03-30T00:19:52.461Z,91.34
2023-03-30T00:21:55.495Z,92.26
2023-03-30T00:23:58.614Z,93.15
2023-03-30T00:26:01.985Z,92.40
2023-03-30T00:28:05.128Z,92.82
2023-03-30T00:30:12.341Z,93.60
2023-03-30T00:32:15.598Z,93.72
2023-03-30T00:34:19.211Z,95.07
2023-03-30T00:36:22.491Z,94.05
2023-03-30T00:38:27.243Z,93.88
2023-03-30T00:40:32.596Z,92.62
2023-03-30T00:42:36.618Z,93.48
2023-03-30T00:45:15.817Z,93.03
2023-03-30T00:47:20.613Z,93.10
2023-03-30T00:49:23.735Z,92.21
2023-03-30T00:51:27.662Z,92.54
2023-03-30T00:53:34.335Z,92.47
2023-03-30T00:55:39.140Z,93.46
2023-03-30T00:57:44.281Z,94.06
2023-03-30T00:59:48.308Z,94.69
2023-03-30T01:01:52.448Z,94.49
2023-03-30T01:03:59.418Z,95.03
2023-03-30T01:06:04.870Z,93.77
2023-03-30T01:08:08.874Z,94.60
2023-03-30T01:10:12.668Z,95.08
2023-03-30T01:12:15.792Z,94.30
2023-03-30T01:14:19.051Z,92.80
2023-03-30T01:16:28.489Z,91.58
2023-03-30T01:18:38.114Z,92.83
2023-03-30T01:21:24.004Z,92.36
2023-03-30T01:24:00.029Z,92.65
2023-03-30T01:26:23.610Z,92.63
2023-03-30T01:28:40.304Z,92.48
2023-03-30T01:30:59.667Z,92.26
2023-03-30T01:33:32.159Z,92.48
2023-03-30T01:35:58.168Z,93.29
2023-03-30T01:38:35.137Z,93.10
2023-03-30T01:40:41.818Z,93.01
2023-03-30T01:42:51.566Z,93.45
2023-03-30T01:45:00.043Z,94.27
2023-03-30T01:47:08.776Z,94.28
2023-03-30T01:49:16.384Z,95.10
2023-03-30T01:51:21.608Z,96.04
2023-03-30T01:53:28.951Z,95.05
2023-03-30T01:55:35.122Z,96.06
2023-03-30T01:57:44.159Z,95.89
2023-03-30T01:59:53.204Z,95.11
2023-03-30T02:02:02.700Z,95.34
2023-03-30T02:04:07.474Z,94.77
2023-03-30T02:06:24.489Z,94.80
2023-03-30T02:08:40.649Z,96.62
2023-03-30T02:10:52.855Z,94.42
2023-03-30T02:13:00.945Z,95.78
2023-03-30T02:15:06.177Z,95.98
2023-03-30T02:17:13.813Z,95.23
2023-03-30T02:19:18.239Z,96.58
2023-03-30T02:21:21.504Z,97.30
2023-03-30T02:23:27.015Z,96.05
2023-03-30T02:25:30.040Z,96.26
2023-03-30T02:27:33.806Z,96.73
2023-03-30T02:29:40.495Z,97.06
2023-03-30T02:31:43.989Z,96.04
2023-03-30T02:33:59.288Z,95.21
2023-03-30T02:36:38.660Z,94.65
2023-03-30T02:38:54.455Z,95.28
2023-03-30T02:41:07.157Z,95.86
2023-03-30T02:43:25.075Z,94.61
2023-03-30T02:45:39.246Z,94.80
2023-03-30T02:47:50.999Z,94.56
2023-03-30T02:49:56.622Z,95.39
2023-03-30T02:52:07.670Z,95.15
2023-03-30T02:54:25.441Z,96.17
2023-03-30T02:56:53.888Z,95.75
2023-03-30T02:58:59.736Z,95.51
2023-03-30T03:01:08.397Z,96.02
2023-03-30T03:03:25.074Z,96.69
2023-03-30T03:05:32.551Z,96.54
2023-03-30T03:07:49.770Z,96.38
2023-03-30T03:09:53.816Z,96.18
2023-03-30T03:11:58.761Z,96.09
2023-03-30T03:14:07.949Z,95.28
2023-03-30T03:16:13.115Z,95.56
2023-03-30T03:18:26.343Z,96.61
2023-03-30T03:20:30.655Z,95.79
2023-03-30T03:22:34.872Z,95.64
2023-03-30T03:24:39.217Z,95.50
2023-03-30T03:26:45.374Z,96.00
2023-03-30T03:28:48.708Z,96.87
2023-03-30T03:30:52.043Z,97.04
2023-03-30T03:32:59.914Z,98.73
2023-03-30T03:35:04.960Z,99.46
2023-03-30T03:37:09.119Z,100.00
2023-03-30T03:39:12.580Z,99.86
2023-03-30T03:41:16.131Z,100.00
2023-03-30T03:43:19.876Z,100.00
2023-03-30T03:45:22.955Z,100.00
2023-03-30T03:47:35.664Z,100.00
2023-03-30T03:49:40.339Z,99.04
2023-03-30T03:51:43.501Z,98.92
2023-03-30T03:53:49.669Z,100.00
2023-03-30T03:55:53.006Z,99.69
2023-03-30T03:57:56.102Z,99.57
2023-03-30T03:59:59.929Z,99.28
2023-03-30T04:02:03.308Z,99.52
2023-03-30T04:04:06.734Z,99.23
2023-03-30T04:06:11.469Z,99.29
2023-03-30T04:08:18.089Z,99.55
2023-03-30T04:10:23.018Z,99.88
2023-03-30T04:12:42.511Z,99.88
2023-03-30T04:14:59.882Z,100.00
2023-03-30T04:17:24.030Z,100.00
2023-03-30T04:20:04.766Z,100.00
2023-03-30T04:22:36.883Z,100.00
2023-03-30T04:25:05.713Z,100.00
2023-03-30T04:27:38.827Z,100.00
2023-03-30T04:30:12.533Z,100.00
2023-03-30T04:32:21.095Z,100.00
2023-03-30T04:34:54.803Z,100.00
2023-03-30T04:37:30.122Z,100.00
2023-03-30T04:40:01.475Z,100.00
2023-03-30T04:42:30.444Z,100.00
2023-03-30T04:44:55.324Z,100.00
2023-03-30T04:47:16.041Z,100.00
2023-03-30T04:49:48.131Z,100.00
2023-03-30T04:52:10.084Z,100.00
2023-03-30T04:54:33.300Z,100.00
2023-03-30T04:56:56.359Z,100.00
2023-03-30T04:59:22.496Z,100.00
2023-03-30T05:01:45.411Z,100.00
2023-03-30T05:04:08.861Z,100.00
2023-03-30T05:06:30.327Z,100.00
2023-03-30T05:08:51.040Z,100.00
2023-03-30T05:11:23.676Z,100.00
2023-03-30T05:13:48.819Z,100.00
2023-03-30T05:16:11.054Z,100.00
2023-03-30T05:18:32.603Z,100.00
2023-03-30T05:20:57.822Z,100.00
2023-03-30T05:23:13.986Z,100.00
2023-03-30T05:25:48.928Z,100.00
2023-03-30T05:28:32.375Z,100.00
2023-03-30T05:30:56.878Z,100.00
2023-03-30T05:33:17.944Z,100.00
2023-03-30T05:35:29.577Z,100.00
2023-03-30T05:37:49.731Z,100.00
2023-03-30T05:40:20.523Z,100.00
2023-03-30T05:42:41.915Z,100.00
2023-03-30T05:45:09.338Z,100.00
2023-03-30T05:47:39.886Z,100.00
2023-03-30T05:49:49.866Z,100.00
2023-03-30T05:52:02.238Z,100.00
2023-03-30T05:54:24.017Z,100.00
2023-03-30T05:56:35.944Z,100.00
2023-03-30T05:58:56.116Z,100.00
2023-03-30T06:01:17.489Z,100.00
2023-03-30T06:03:24.891Z,100.00
2023-03-30T06:05:28.182Z,100.00
2023-03-30T06:07:31.640Z,100.00
2023-03-30T06:09:35.015Z,100.00
2023-03-30T06:11:44.365Z,100.00
2023-03-30T06:14:00.357Z,100.00
2023-03-30T06:16:04.784Z,100.00
2023-03-30T06:18:08.637Z,100.00
2023-03-30T06:20:16.645Z,100.00
2023-03-30T06:22:22.327Z,100.00
2023-03-30T06:24:54.835Z,100.00
2023-03-30T06:26:58.443Z,100.00
2023-03-30T06:29:02.368Z,100.00
2023-03-30T06:31:09.540Z,100.00
2023-03-30T06:33:12.982Z,100.00
2023-03-30T06:35:22.762Z,100.00
2023-03-30T06:37:27.204Z,100.00
2023-03-30T06:39:30.278Z,100.00
2023-03-30T06:41:33.438Z,100.00
2023-03-30T06:43:40.135Z,100.00
2023-03-30T06:45:52.094Z,100.00
2023-03-30T06:47:56.344Z,100.00
2023-03-30T06:49:59.594Z,100.00
2023-03-30T06:52:24.359Z,100.00
2023-03-30T06:54:27.756Z,100.00
2023-03-30T06:56:40.936Z,100.00
2023-03-30T06:58:46.858Z,100.00
2023-03-30T07:00:50.277Z,100.00
2023-03-30T07:02:59.402Z,100.00
2023-03-30T07:05:12.433Z,100.00
2023-03-30T07:07:33.732Z,100.00
2023-03-30T07:09:36.847Z,100.00
2023-03-30T07:11:40.332Z,100.00
2023-03-30T07:13:43.391Z,100.00
2023-03-30T07:15:47.396Z,100.00
2023-03-30T07:17:50.597Z,100.00
2023-03-30T07:19:54.254Z,100.00
2023-03-30T07:21:57.402Z,100.00
2023-03-30T07:24:04.395Z,100.00
2023-03-30T07:26:12.072Z,100.00
2023-03-30T07:28:27.123Z,100.00
2023-03-30T07:30:30.614Z,100.00
2023-03-30T07:32:58.790Z,100.00
2023-03-30T07:35:06.485Z,100.00
2023-03-30T07:37:20.481Z,100.00
2023-03-30T07:39:27.690Z,100.00
2023-03-30T07:41:31.273Z,100.00
2023-03-30T07:43:36.069Z,100.00
2023-03-30T07:45:40.499Z,100.00
2023-03-30T07:47:46.154Z,100.00
2023-03-30T07:49:49.311Z,100.00
2023-03-30T07:51:52.806Z,100.00
2023-03-30T07:54:00.508Z,100.00
2023-03-30T07:56:14.650Z,100.00
2023-03-30T07:58:22.366Z,100.00
2023-03-30T08:00:26.033Z,100.00
2023-03-30T08:03:01.798Z,100.00
2023-03-30T08:05:06.782Z,100.00
2023-03-30T08:07:20.062Z,100.00
2023-03-30T08:09:27.603Z,100.00
2023-03-30T08:11:33.070Z,100.00
2023-03-30T08:13:37.336Z,100.00
2023-03-30T08:15:41.789Z,100.00
2023-03-30T08:17:44.878Z,100.00
2023-03-30T08:19:48.330Z,100.00
2023-03-30T08:21:51.664Z,100.00
2023-03-30T08:23:56.114Z,100.00
2023-03-30T08:25:59.741Z,100.00
2023-03-30T08:28:05.640Z,100.00
2023-03-30T08:30:09.884Z,100.00
2023-03-30T08:32:12.924Z,100.00
2023-03-30T08:34:16.045Z,100.00
2023-03-30T08:36:20.270Z,100.00
2023-03-30T08:38:23.293Z,100.00
2023-03-30T08:40:26.413Z,100.00
2023-03-30T08:42:46.630Z,100.00
2023-03-30T08:44:54.351Z,100.00
2023-03-30T08:46:57.489Z,100.00
2023-03-30T08:49:02.637Z,100.00
2023-03-30T08:51:09.977Z,100.00
2023-03-30T08:53:13.692Z,100.00
2023-03-30T08:55:24.248Z,100.00
2023-03-30T08:57:36.298Z,100.00
2023-03-30T08:59:45.280Z,100.00
2023-03-30T09:01:53.260Z,100.00
2023-03-30T09:04:16.687Z,100.00
2023-03-30T09:06:24.583Z,100.00
2023-03-30T09:08:29.399Z,100.00
2023-03-30T09:10:37.158Z,100.00
2023-03-30T09:12:42.826Z,100.00
2023-03-30T09:14:50.048Z,100.00
2023-03-30T09:16:59.720Z,100.00
2023-03-30T09:19:04.370Z,100.00
2023-03-30T09:21:10.213Z,100.00
2023-03-30T09:23:16.438Z,100.00
2023-03-30T09:25:21.630Z,100.00
2023-03-30T09:27:30.286Z,100.00
2023-03-30T09:29:34.651Z,100.00
2023-03-30T09:31:41.291Z,100.00
2023-03-30T09:33:49.803Z,100.00
2023-03-30T09:36:01.021Z,100.00
2023-03-30T09:38:05.041Z,100.00
2023-03-30T09:40:21.261Z,100.00
2023-03-30T09:42:34.099Z,100.00
2023-03-30T09:44:40.556Z,100.00
2023-03-30T09:46:43.670Z,100.00
2023-03-30T09:48:49.411Z,100.00
2023-03-30T09:50:52.982Z,100.00
2023-03-30T09:53:01.215Z,100.00
2023-03-30T09:55:19.909Z,100.00
2023-03-30T09:57:28.865Z,100.00
2023-03-30T09:59:34.231Z,100.00
2023-03-30T10:01:38.954Z,100.00
2023-03-30T10:03:43.381Z,100.00
2023-03-30T10:06:02.654Z,100.00
2023-03-30T10:08:07.549Z,100.00
2023-03-30T10:10:18.439Z,100.00
2023-03-30T10:12:22.497Z,100.00
2023-03-30T10:14:31.502Z,100.00
2023-03-30T10:16:34.948Z,100.00
2023-03-30T10:18:43.210Z,100.00
2023-03-30T10:20:52.072Z,100.00
2023-03-30T10:22:56.446Z,100.00
2023-03-30T10:25:01.774Z,100.00
2023-03-30T10:27:11.068Z,100.00
2023-03-30T10:29:15.479Z,100.00
2023-03-30T10:31:18.765Z,100.00
2023-03-30T10:33:21.896Z,100.00
2023-03-30T10:35:26.594Z,100.00
2023-03-30T10:37:34.411Z,100.00
2023-03-30T10:39:41.269Z,100.00
2023-03-30T10:41:44.487Z,100.00
2023-03-30T10:43:48.691Z,100.00
2023-03-30T10:45:53.843Z,100.00
2023-03-30T10:48:25.467Z,100.00
2023-03-30T10:50:36.053Z,100.00
2023-03-30T10:52:55.917Z,100.00
2023-03-30T10:55:04.201Z,100.00
2023-03-30T10:57:11.851Z,100.00
2023-03-30T10:59:29.004Z,100.00
2023-03-30T11:01:39.573Z,98.89
2023-03-30T11:03:47.512Z,99.13
2023-03-30T11:05:52.804Z,98.33
2023-03-30T11:08:00.389Z,99.23
2023-03-30T11:10:07.354Z,99.21
2023-03-30T11:12:15.075Z,98.64
2023-03-30T11:14:22.930Z,97.21
2023-03-30T11:16:28.635Z,97.83
2023-03-30T11:18:37.557Z,97.47
2023-03-30T11:20:43.573Z,97.09
2023-03-30T11:22:48.335Z,97.32
2023-03-30T11:24:54.355Z,98.34
2023-03-30T11:27:02.313Z,97.23
2023-03-30T11:29:15.632Z,96.47
2023-03-30T11:31:29.482Z,97.63
2023-03-30T11:33:37.064Z,98.34
2023-03-30T11:35:43.848Z,96.28
2023-03-30T11:37:51.132Z,95.82
2023-03-30T11:40:01.267Z,96.15
2023-03-30T11:42:15.151Z,96.42
2023-03-30T11:44:18.329Z,97.67
2023-03-30T11:46:25.649Z,97.57
2023-03-30T11:49:05.692Z,95.33
2023-03-30T11:51:20.253Z,96.80
2023-03-30T11:53:31.649Z,94.65
2023-03-30T11:55:54.739Z,97.88
2023-03-30T11:58:09.271Z,96.01
2023-03-30T12:00:26.753Z,95.58
2023-03-30T12:02:34.986Z,94.91
2023-03-30T12:04:44.113Z,95.67
2023-03-30T12:06:51.714Z,96.75
2023-03-30T12:09:24.321Z,96.25
2023-03-30T12:11:36.522Z,98.24
2023-03-30T12:13:50.606Z,96.67
2023-03-30T12:15:59.872Z,95.90
2023-03-30T12:18:07.540Z,96.37
2023-03-30T12:20:23.234Z,94.63
2023-03-30T12:22:31.273Z,96.68
2023-03-30T12:24:36.970Z,94.53
2023-03-30T12:26:42.514Z,94.62
2023-03-30T12:29:15.283Z,94.50
2023-03-30T12:31:13.539Z,94.43
2023-03-30T12:33:19.898Z,95.24
2023-03-30T12:35:52.931Z,92.41
2023-03-30T12:37:59.061Z,93.09
2023-03-30T12:40:10.392Z,91.65
2023-03-30T12:42:26.624Z,91.79
2023-03-30T12:44:36.483Z,90.51
2023-03-30T12:46:42.939Z,93.53
2023-03-30T12:48:52.453Z,91.77
2023-03-30T12:51:03.663Z,91.86
2023-03-30T12:53:25.557Z,90.18
2023-03-30T12:55:40.140Z,89.33
2023-03-30T12:57:57.135Z,87.46
2023-03-30T13:00:27.213Z,86.94
2023-03-30T13:02:44.297Z,85.01
2023-03-30T13:04:49.155Z,86.43
2023-03-30T13:06:53.688Z,86.55
2023-03-30T13:08:58.888Z,86.93
2023-03-30T13:11:14.270Z,88.29
2023-03-30T13:13:24.024Z,86.84
2023-03-30T13:15:48.355Z,87.52
2023-03-30T13:18:00.286Z,87.94
2023-03-30T13:20:29.092Z,88.10
2023-03-30T13:22:33.917Z,89.63
2023-03-30T13:24:41.251Z,91.58
2023-03-30T13:26:45.949Z,91.02
2023-03-30T13:29:04.427Z,88.48
2023-03-30T13:31:19.403Z,87.18
2023-03-30T13:33:23.806Z,86.44
2023-03-30T13:35:39.220Z,85.05
2023-03-30T13:37:56.870Z,84.69
2023-03-30T13:40:07.418Z,85.94
2023-03-30T13:42:27.329Z,84.54
2023-03-30T13:44:48.245Z,82.24
2023-03-30T13:46:54.587Z,80.93
2023-03-30T13:49:09.381Z,81.07
2023-03-30T13:51:15.415Z,80.16
2023-03-30T13:53:19.182Z,77.76
2023-03-30T13:55:30.149Z,76.33
2023-03-30T13:57:36.673Z,76.72
2023-03-30T13:59:44.102Z,77.77
2023-03-30T14:01:50.359Z,78.36
2023-03-30T14:03:56.435Z,80.62
2023-03-30T14:06:03.711Z,78.78
2023-03-30T14:08:10.365Z,82.11
2023-03-30T14:10:14.980Z,81.06
2023-03-30T14:12:18.131Z,80.06
2023-03-30T14:14:25.609Z,81.10
2023-03-30T14:16:37.205Z,82.65
2023-03-30T14:18:40.563Z,83.98
2023-03-30T14:20:47.972Z,85.94
2023-03-30T14:22:52.575Z,87.21
2023-03-30T14:24:59.128Z,87.24
2023-03-30T14:27:03.861Z,88.08
2023-03-30T14:29:21.033Z,90.40
2023-03-30T14:31:40.842Z,90.27
2023-03-30T14:33:45.032Z,92.87
2023-03-30T14:35:51.218Z,93.54
2023-03-30T14:37:57.186Z,92.91
2023-03-30T14:40:06.676Z,92.89
2023-03-30T14:42:15.577Z,93.66
2023-03-30T14:44:21.345Z,93.28
2023-03-30T14:46:25.591Z,93.92
2023-03-30T14:48:32.410Z,92.68
2023-03-30T14:50:37.882Z,93.05
2023-03-30T14:52:42.722Z,93.05
2023-03-30T14:54:57.715Z,93.43
2023-03-30T14:57:07.552Z,93.93
2023-03-30T14:59:12.106Z,94.47
2023-03-30T15:01:18.022Z,95.58
2023-03-30T15:03:32.876Z,95.60
2023-03-30T15:05:41.536Z,95.49
2023-03-30T15:07:48.157Z,95.12
2023-03-30T15:09:56.141Z,93.88
2023-03-30T15:12:01.343Z,93.81
2023-03-30T15:14:09.676Z,93.77
2023-03-30T15:16:16.034Z,95.33
2023-03-30T15:18:22.300Z,94.39
2023-03-30T15:20:30.134Z,94.53
2023-03-30T15:22:37.227Z,95.16
2023-03-30T15:24:49.186Z,94.05
2023-03-30T15:26:52.607Z,93.26
2023-03-30T15:28:58.265Z,92.33
2023-03-30T15:31:01.528Z,93.52
2023-03-30T15:33:05.884Z,93.32
2023-03-30T15:35:19.989Z,92.60
2023-03-30T15:37:23.834Z,93.99
2023-03-30T15:39:33.869Z,92.84
2023-03-30T15:41:48.454Z,92.49
2023-03-30T15:43:56.405Z,93.38
2023-03-30T15:46:02.539Z,92.12
2023-03-30T15:48:06.411Z,91.97
2023-03-30T15:50:12.783Z,91.44
2023-03-30T15:52:20.487Z,91.74
2023-03-30T15:54:27.070Z,92.88
2023-03-30T15:56:32.973Z,93.10
2023-03-30T15:58:37.516Z,92.35
2023-03-30T16:00:42.038Z,92.59
2023-03-30T16:02:49.366Z,91.76
2023-03-30T16:04:52.579Z,91.38
2023-03-30T16:06:56.205Z,91.90
2023-03-30T16:08:59.334Z,92.12
2023-03-30T16:11:02.574Z,89.95
2023-03-30T16:13:07.252Z,90.03
2023-03-30T16:15:14.814Z,84.84
2023-03-30T16:17:18.673Z,85.22
2023-03-30T16:19:22.701Z,81.43
2023-03-30T16:21:25.905Z,81.98
2023-03-30T16:23:28.986Z,81.47
2023-03-30T16:25:44.256Z,79.44
2023-03-30T16:27:48.595Z,79.81
2023-03-30T16:29:51.678Z,80.39
2023-03-30T16:31:56.496Z,79.68
2023-03-30T16:33:59.695Z,79.73
2023-03-30T16:36:02.989Z,81.19
2023-03-30T16:38:06.115Z,81.11
2023-03-30T16:40:20.085Z,79.80
2023-03-30T16:42:23.338Z,80.18
2023-03-30T16:44:26.723Z,80.21
2023-03-30T16:46:29.924Z,81.45
2023-03-30T16:48:34.365Z,80.39
2023-03-30T16:50:39.091Z,80.38
2023-03-30T16:52:42.232Z,80.66
2023-03-30T16:54:45.314Z,79.07
2023-03-30T16:56:48.435Z,79.31
2023-03-30T16:58:51.727Z,78.45
2023-03-30T17:01:03.339Z,78.95
2023-03-30T17:03:06.812Z,77.68
2023-03-30T17:05:11.425Z,77.27
2023-03-30T17:07:14.495Z,78.41
2023-03-30T17:09:19.405Z,78.26
2023-03-30T17:11:22.543Z,78.58
2023-03-30T17:13:25.991Z,79.05
2023-03-30T17:15:29.417Z,78.21
2023-03-30T17:17:32.595Z,78.56
2023-03-30T17:19:35.796Z,79.79
2023-03-30T17:21:40.489Z,78.59
2023-03-30T17:23:44.046Z,79.74
2023-03-30T17:25:49.254Z,80.28
2023-03-30T17:27:53.181Z,78.36
2023-03-30T17:29:56.711Z,79.37
2023-03-30T17:31:59.796Z,79.74
2023-03-30T17:34:03.194Z,79.47
2023-03-30T17:36:12.337Z,79.76
2023-03-30T17:38:17.745Z,80.66
2023-03-30T17:40:22.672Z,80.98
2023-03-30T17:42:25.844Z,80.65
2023-03-30T17:44:28.844Z,79.90
2023-03-30T17:46:33.412Z,80.08
2023-03-30T17:48:36.576Z,81.09
2023-03-30T17:50:43.520Z,79.89
2023-03-30T17:52:46.899Z,80.47
2023-03-30T17:54:51.595Z,80.09
2023-03-30T17:56:54.897Z,80.20
2023-03-30T17:58:58.009Z,80.21
2023-03-30T18:01:02.594Z,79.88
2023-03-30T18:03:06.101Z,79.39
2023-03-30T18:05:10.082Z,79.68
2023-03-30T18:07:13.298Z,80.26
2023-03-30T18:09:17.073Z,79.79
2023-03-30T18:11:22.690Z,80.20
2023-03-30T18:13:26.833Z,80.23
2023-03-30T18:15:30.214Z,80.30
2023-03-30T18:17:33.386Z,80.70
2023-03-30T18:19:36.478Z,80.18
2023-03-30T18:21:39.608Z,80.09
2023-03-30T18:23:42.739Z,80.96
2023-03-30T18:25:45.915Z,80.77
2023-03-30T18:27:50.918Z,81.44
2023-03-30T18:29:54.071Z,80.85
2023-03-30T18:31:57.212Z,80.19
2023-03-30T18:34:00.274Z,79.94
2023-03-30T18:36:06.026Z,80.15
2023-03-30T18:38:11.208Z,80.63
2023-03-30T18:40:19.940Z,80.88
2023-03-30T18:42:22.984Z,81.31
2023-03-30T18:44:27.622Z,81.05
2023-03-30T18:46:30.803Z,81.33
2023-03-30T18:48:33.985Z,81.69
2023-03-30T18:50:38.732Z,81.61
2023-03-30T18:52:41.928Z,81.85
2023-03-30T18:54:45.013Z,82.00
2023-03-30T18:56:49.740Z,82.36
2023-03-30T18:58:52.804Z,82.01
2023-03-30T19:00:57.398Z,82.14
2023-03-30T19:03:00.490Z,82.23
2023-03-30T19:05:03.554Z,82.33
2023-03-30T19:07:07.368Z,81.92
2023-03-30T19:09:10.559Z,81.87
2023-03-30T19:11:15.513Z,82.04
2023-03-30T19:13:19.650Z,81.30
2023-03-30T19:15:24.677Z,82.09
2023-03-30T19:17:29.028Z,82.23
2023-03-30T19:19:32.087Z,81.92
2023-03-30T19:21:35.171Z,82.19
2023-03-30T19:23:38.171Z,82.51
2023-03-30T19:25:41.368Z,82.06
2023-03-30T19:27:59.261Z,82.80
2023-03-30T19:30:05.911Z,82.55
2023-03-30T19:32:09.350Z,82.16
2023-03-30T19:34:13.787Z,82.54
2023-03-30T19:36:16.882Z,82.18
2023-03-30T19:38:19.943Z,82.21
2023-03-30T19:40:23.048Z,82.28
2023-03-30T19:42:28.722Z,83.04
2023-03-30T19:44:31.628Z,82.76
2023-03-30T19:46:34.653Z,82.52
2023-03-30T19:48:37.765Z,82.63
2023-03-30T19:50:42.252Z,82.84
2023-03-30T19:52:46.932Z,82.43
2023-03-30T19:54:50.065Z,83.40
2023-03-30T19:56:53.262Z,83.50
2023-03-30T19:58:58.827Z,82.97
2023-03-30T20:01:04.915Z,83.33
2023-03-30T20:03:08.468Z,84.22
2023-03-30T20:05:12.825Z,83.22
2023-03-30T20:07:18.196Z,83.74
2023-03-30T20:09:21.571Z,83.75
2023-03-30T20:11:24.648Z,83.02
2023-03-30T20:13:27.849Z,83.24
2023-03-30T20:15:30.988Z,84.27
2023-03-30T20:17:36.344Z,84.91
2023-03-30T20:19:40.860Z,85.34
2023-03-30T20:21:44.196Z,85.11
2023-03-30T20:23:49.064Z,84.37
2023-03-30T20:25:56.739Z,85.59
2023-03-30T20:27:59.913Z,85.41
2023-03-30T20:30:03.470Z,85.98
2023-03-30T20:32:07.050Z,84.40
2023-03-30T20:34:12.805Z,84.67
2023-03-30T20:36:15.962Z,86.38
2023-03-30T20:38:19.231Z,85.95
2023-03-30T20:40:24.108Z,84.83
2023-03-30T20:42:28.248Z,84.47
2023-03-30T20:44:31.926Z,85.43
2023-03-30T20:46:38.011Z,84.56
2023-03-30T20:48:41.666Z,85.78
2023-03-30T20:50:44.830Z,85.08
2023-03-30T20:52:48.056Z,85.56
2023-03-30T20:54:51.446Z,85.50
2023-03-30T20:56:56.066Z,85.80
2023-03-30T20:59:00.787Z,85.27
2023-03-30T21:01:12.862Z,86.17
2023-03-30T21:03:15.982Z,86.41
2023-03-30T21:05:19.170Z,86.47
2023-03-30T21:07:24.698Z,85.28
2023-03-30T21:09:27.829Z,85.91
2023-03-30T21:11:33.557Z,85.69
2023-03-30T21:13:38.062Z,86.43
2023-03-30T21:15:41.124Z,86.70
2023-03-30T21:17:44.477Z,85.14
2023-03-30T21:19:47.557Z,85.24
2023-03-30T21:21:50.793Z,85.46
2023-03-30T21:23:53.966Z,85.23
2023-03-30T21:25:58.674Z,86.13
2023-03-30T21:28:01.730Z,85.59
2023-03-30T21:30:07.638Z,86.63
2023-03-30T21:32:10.657Z,85.20
2023-03-30T21:34:14.617Z,85.98
2023-03-30T21:36:17.780Z,85.25
2023-03-30T21:38:21.982Z,85.89
2023-03-30T21:40:25.077Z,86.46
2023-03-30T21:42:28.102Z,87.33
2023-03-30T21:44:34.587Z,86.21
2023-03-30T21:46:38.989Z,88.18
2023-03-30T21:48:43.782Z,86.57
2023-03-30T21:50:46.853Z,87.62
2023-03-30T21:52:49.910Z,88.76
2023-03-30T21:54:53.028Z,86.87
2023-03-30T21:56:56.087Z,88.63
2023-03-30T21:58:59.484Z,88.93
2023-03-30T22:01:11.958Z,87.22
2023-03-30T22:03:17.760Z,89.29
2023-03-30T22:05:20.979Z,89.01
2023-03-30T22:07:24.202Z,89.69
2023-03-30T22:09:27.335Z,89.24
2023-03-30T22:11:30.500Z,88.43
2023-03-30T22:13:33.918Z,88.61
2023-03-30T22:15:36.929Z,90.03
2023-03-30T22:17:42.400Z,88.98
2023-03-30T22:19:46.780Z,90.75
2023-03-30T22:21:53.010Z,88.87
2023-03-30T22:23:56.313Z,91.26
2023-03-30T22:26:00.125Z,91.06
2023-03-30T22:28:03.222Z,91.59
2023-03-30T22:30:07.480Z,90.06
2023-03-30T22:32:10.866Z,91.82
2023-03-30T22:34:13.937Z,90.46
2023-03-30T22:36:20.436Z,91.12
2023-03-30T22:38:23.550Z,90.45
2023-03-30T22:40:26.604Z,90.86
2023-03-30T22:42:29.729Z,91.31
2023-03-30T22:44:32.806Z,90.13
2023-03-30T22:46:35.767Z,91.29
2023-03-30T22:48:41.447Z,90.52
2023-03-30T22:50:44.718Z,92.28
2023-03-30T22:52:49.062Z,91.39
2023-03-30T22:54:52.113Z,91.16
2023-03-30T22:56:55.143Z,91.45
2023-03-30T22:58:58.589Z,91.50
2023-03-30T23:01:02.178Z,92.60
2023-03-30T23:03:05.629Z,91.73
2023-03-30T23:05:10.076Z,93.12
2023-03-30T23:07:14.170Z,93.60
2023-03-30T23:09:20.656Z,93.06
2023-03-30T23:11:23.747Z,93.91
2023-03-30T23:13:26.967Z,92.99
2023-03-30T23:15:30.205Z,93.94
2023-03-30T23:17:33.639Z,93.19
2023-03-30T23:19:36.880Z,94.14
2023-03-30T23:21:41.030Z,93.30
2023-03-30T23:23:44.120Z,93.08
2023-03-30T23:25:51.149Z,94.77
2023-03-30T23:27:54.158Z,94.87
2023-03-30T23:29:57.190Z,94.97
2023-03-30T23:32:00.471Z,93.97
2023-03-30T23:34:03.566Z,94.53
2023-03-30T23:36:07.605Z,94.11
2023-03-30T23:38:11.526Z,93.50
2023-03-30T23:40:14.634Z,95.08
2023-03-30T23:42:19.153Z,93.66
2023-03-30T23:44:22.397Z,94.49
2023-03-30T23:46:25.545Z,93.42
2023-03-30T23:48:28.716Z,93.79
2023-03-30T23:50:33.010Z,93.68
2023-03-30T23:52:36.045Z,94.16
2023-03-30T23:54:40.841Z,94.16
2023-03-30T23:56:46.844Z,94.71
2023-03-30T23:58:51.339Z,94.04
